Time;durP1;ratioP1;P1;durP2;ratioP2;P2;SDS_P1;SDS_P2;PMS_P1;PMS_P2;Temp;Humidity;BMP_temperature;BMP_pressure;BME280_temperature;BME280_humidity;BME280_pressure;Samples;Min_cycle;Max_cycle;Signal;HPM_P1;HPM_P2
2021/07/29 00:01:59;;;;;;;17.30;5.60;;;;;;;21.41;61.92;96517.97;5114562;28;20522;-74
2021/07/29 00:04:24;;;;;;;8.73;5.03;;;;;;;21.38;62.21;96520.03;5114368;28;20489;-71
2021/07/29 00:06:50;;;;;;;12.32;5.07;;;;;;;21.34;61.91;96514.97;5114187;28;20023;-71
2021/07/29 00:09:15;;;;;;;8.15;5.50;;;;;;;21.34;62.10;96517.63;5114042;28;20069;-72
2021/07/29 00:11:41;;;;;;;11.23;6.10;;;;;;;21.28;62.37;96519.97;5114010;28;20106;-70
2021/07/29 00:14:06;;;;;;;11.10;6.45;;;;;;;21.24;62.16;96522.00;5113977;28;20377;-70
2021/07/29 00:16:41;;;;;;;13.40;5.45;;;;;;;21.20;61.83;96521.41;5114056;28;20034;-73
2021/07/29 00:19:08;;;;;;;11.38;5.30;;;;;;;21.18;61.63;96518.03;5113962;28;20035;-71
2021/07/29 00:21:35;;;;;;;14.25;5.18;;;;;;;21.12;62.31;96518.53;5113928;28;20034;-73
2021/07/29 00:24:01;;;;;;;8.70;5.53;;;;;;;21.13;62.31;96512.25;5113638;28;20020;-70
2021/07/29 00:26:28;;;;;;;8.48;4.70;;;;;;;21.08;63.10;96501.97;5113816;28;20035;-72
2021/07/29 00:28:54;;;;;;;10.30;5.72;;;;;;;21.02;62.51;96499.84;5113746;28;20027;-71
2021/07/29 00:31:21;;;;;;;10.55;5.03;;;;;;;21.01;62.32;96492.00;5113802;28;20023;-72
2021/07/29 00:33:46;;;;;;;9.63;4.82;;;;;;;21.01;62.68;96487.50;5113633;28;20094;-71
2021/07/29 00:36:22;;;;;;;8.63;4.95;;;;;;;21.01;62.53;96490.16;5113732;28;20020;-70
2021/07/29 00:38:48;;;;;;;7.97;4.97;;;;;;;20.99;62.64;96492.13;5113718;28;20483;-73
2021/07/29 00:41:14;;;;;;;7.88;4.90;;;;;;;20.91;61.72;96489.22;5113701;28;20024;-70
2021/07/29 00:43:40;;;;;;;9.15;5.10;;;;;;;20.80;61.83;96490.91;5113609;28;20374;-72
2021/07/29 00:46:05;;;;;;;10.73;5.20;;;;;;;20.69;62.14;96490.94;5113728;28;20034;-72
2021/07/29 00:48:31;;;;;;;10.30;5.30;;;;;;;20.67;63.28;96491.06;5113399;28;20120;-74
2021/07/29 00:50:57;;;;;;;9.90;4.50;;;;;;;20.62;63.10;96485.25;5113476;28;20030;-72
2021/07/29 00:53:23;;;;;;;9.85;5.47;;;;;;;20.54;63.47;96485.88;5113603;28;20099;-73
2021/07/29 00:55:49;;;;;;;10.65;5.22;;;;;;;20.47;63.43;96491.81;5113547;28;20423;-73
2021/07/29 00:58:14;;;;;;;9.73;5.07;;;;;;;20.45;63.14;96486.59;5113434;28;20361;-72
2021/07/29 01:00:40;;;;;;;11.30;5.03;;;;;;;20.45;63.37;96481.28;5112933;28;20069;-75
2021/07/29 01:03:05;;;;;;;9.95;5.65;;;;;;;20.46;63.63;96488.28;5113439;28;20085;-74
2021/07/29 01:05:31;;;;;;;6.30;4.53;;;;;;;20.41;63.32;96491.31;5113505;28;20023;-70
2021/07/29 01:07:57;;;;;;;8.27;5.25;;;;;;;20.41;62.91;96490.47;5113530;28;20020;-72
2021/07/29 01:10:23;;;;;;;12.35;5.47;;;;;;;20.44;63.67;96491.06;5113351;28;20119;-71
2021/07/29 01:12:48;;;;;;;7.88;5.20;;;;;;;20.38;63.16;96480.09;5113570;28;20106;-74
2021/07/29 01:15:14;;;;;;;11.35;5.68;;;;;;;20.32;62.91;96481.44;5113498;28;20031;-71
2021/07/29 01:17:39;;;;;;;9.80;5.25;;;;;;;20.31;62.51;96485.03;5113418;28;20414;-71
2021/07/29 01:20:05;;;;;;;9.35;5.15;;;;;;;20.27;63.25;96491.56;5113201;28;20024;-73
2021/07/29 01:22:36;;;;;;;10.45;5.75;;;;;;;20.29;63.61;96486.97;5113241;28;20021;-73
2021/07/29 01:25:02;;;;;;;9.27;6.18;;;;;;;20.26;63.75;96495.19;5113271;28;20053;-74
2021/07/29 01:27:32;;;;;;;9.43;5.22;;;;;;;20.22;63.49;96486.59;5113198;28;20542;-72
2021/07/29 01:29:59;;;;;;;7.95;5.45;;;;;;;20.20;63.78;96485.91;5113221;28;20114;-72
2021/07/29 01:32:25;;;;;;;9.18;5.25;;;;;;;20.20;63.96;96488.56;5113064;28;20051;-71
2021/07/29 01:34:51;;;;;;;11.13;5.38;;;;;;;20.16;63.41;96487.94;5113111;28;20103;-71
2021/07/29 01:37:17;;;;;;;10.70;4.78;;;;;;;20.10;63.56;96492.88;5116278;28;20027;-72
2021/07/29 01:39:42;;;;;;;7.93;5.07;;;;;;;20.06;63.83;96494.94;5117135;28;20016;-73
2021/07/29 01:42:08;;;;;;;10.68;4.85;;;;;;;19.98;63.84;96484.03;5117053;28;20020;-71
2021/07/29 01:44:33;;;;;;;10.32;5.00;;;;;;;19.97;64.39;96490.28;5117179;28;20038;-72
2021/07/29 01:46:59;;;;;;;10.63;5.18;;;;;;;19.97;64.25;96487.63;5116837;28;20036;-73
2021/07/29 01:49:25;;;;;;;7.03;5.03;;;;;;;19.99;64.81;96491.88;5116876;28;20118;-73
2021/07/29 01:51:50;;;;;;;5.70;4.50;;;;;;;19.95;64.56;96488.59;5116883;28;20028;-73
2021/07/29 01:54:16;;;;;;;10.07;4.80;;;;;;;19.88;63.97;96490.06;5116800;28;20469;-72
2021/07/29 01:56:43;;;;;;;9.18;5.00;;;;;;;19.73;64.34;96485.91;5116803;28;20427;-72
2021/07/29 01:59:08;;;;;;;12.98;5.35;;;;;;;19.67;64.78;96487.22;5116465;28;20016;-70
2021/07/29 02:01:34;;;;;;;13.20;5.18;;;;;;;19.72;64.42;96489.53;5116357;28;20050;-71
2021/07/29 02:03:59;;;;;;;14.68;5.35;;;;;;;19.74;64.25;96487.63;5116544;28;20500;-72
2021/07/29 02:06:25;;;;;;;12.77;5.53;;;;;;;19.77;65.01;96485.56;5116560;28;20034;-70
2021/07/29 02:08:51;;;;;;;7.18;5.45;;;;;;;19.74;65.17;96483.13;5116330;28;20483;-72
2021/07/29 02:11:16;;;;;;;8.25;5.32;;;;;;;19.72;64.94;96478.91;5116393;28;20423;-72
2021/07/29 02:13:42;;;;;;;7.10;5.03;;;;;;;19.75;64.67;96487.47;5116472;28;20055;-72
2021/07/29 02:16:12;;;;;;;8.77;5.50;;;;;;;19.75;65.26;96481.34;5116338;28;20031;-73
2021/07/29 02:18:37;;;;;;;9.68;5.10;;;;;;;19.73;64.93;96481.44;5116367;28;20030;-72
2021/07/29 02:21:07;;;;;;;11.70;5.25;;;;;;;19.73;65.12;96481.44;5116162;28;20385;-71
2021/07/29 02:23:33;;;;;;;12.13;6.37;;;;;;;19.70;65.07;96474.59;5116160;28;20039;-72
2021/07/29 02:25:59;;;;;;;8.05;5.10;;;;;;;19.69;65.22;96480.00;5116093;28;20264;-71
2021/07/29 02:28:24;;;;;;;9.55;5.45;;;;;;;19.61;65.30;96487.69;5116031;28;20027;-71
2021/07/29 02:30:50;;;;;;;13.90;5.60;;;;;;;19.62;65.56;96481.44;5115989;28;20032;-71
2021/07/29 02:33:15;;;;;;;15.48;5.97;;;;;;;19.58;65.14;96486.13;5116086;28;20022;-74
2021/07/29 02:35:41;;;;;;;10.32;5.95;;;;;;;19.61;65.52;96488.53;5115989;28;20024;-73
2021/07/29 02:38:06;;;;;;;8.85;5.63;;;;;;;19.58;65.46;96491.41;5115772;28;20526;-72
2021/07/29 02:40:32;;;;;;;7.70;5.00;;;;;;;19.61;65.82;96487.69;5115795;28;20019;-74
2021/07/29 02:42:57;;;;;;;9.70;5.40;;;;;;;19.58;65.57;96486.13;5115825;28;20023;-72
2021/07/29 02:45:23;;;;;;;10.38;5.35;;;;;;;19.59;65.79;96489.63;5115701;28;20023;-71
2021/07/29 02:47:49;;;;;;;10.38;6.20;;;;;;;19.60;65.84;96496.59;5115583;28;20024;-72
2021/07/29 02:50:14;;;;;;;7.97;5.20;;;;;;;19.59;65.87;96487.78;5115705;28;20032;-74
2021/07/29 02:52:41;;;;;;;13.15;5.38;;;;;;;19.58;66.06;96494.06;5115567;28;20019;-71
2021/07/29 02:55:07;;;;;;;6.85;5.20;;;;;;;19.54;66.11;96500.56;5115606;28;20375;-71
2021/07/29 02:57:33;;;;;;;10.95;5.70;;;;;;;19.51;65.98;96500.81;5115478;28;20106;-72
2021/07/29 02:59:59;;;;;;;11.35;5.47;;;;;;;19.50;66.21;96499.13;5115159;28;20044;-69
2021/07/29 03:02:24;;;;;;;8.88;6.18;;;;;;;19.45;65.61;96494.97;5115570;28;20434;-70
2021/07/29 03:04:50;;;;;;;11.13;6.10;;;;;;;19.52;66.43;96500.69;5115523;28;20492;-71
2021/07/29 03:07:16;;;;;;;9.02;5.63;;;;;;;19.49;66.27;96494.75;5115328;28;20421;-71
2021/07/29 03:09:41;;;;;;;10.38;6.25;;;;;;;19.41;66.26;96490.88;5115157;28;20023;-72
2021/07/29 03:12:07;;;;;;;15.18;6.00;;;;;;;19.39;66.44;96491.97;5115213;28;20373;-70
2021/07/29 03:14:32;;;;;;;10.77;5.50;;;;;;;19.36;66.18;96482.44;5115044;28;20031;-71
2021/07/29 03:16:58;;;;;;;10.52;5.50;;;;;;;19.38;66.67;96487.63;5115251;28;20027;-71
2021/07/29 03:19:23;;;;;;;8.38;5.53;;;;;;;19.40;66.50;96493.66;5115137;28;20019;-71
2021/07/29 03:21:49;;;;;;;10.25;5.95;;;;;;;19.33;66.76;96487.97;5114999;28;20023;-74
2021/07/29 03:24:14;;;;;;;8.60;5.45;;;;;;;19.28;66.95;96487.44;5115001;28;20047;-75
2021/07/29 03:26:40;;;;;;;8.25;6.22;;;;;;;19.34;66.89;96494.94;5114871;28;20050;-70
2021/07/29 03:29:05;;;;;;;10.63;5.70;;;;;;;19.40;67.14;96496.28;5114804;28;20016;-74
2021/07/29 03:31:31;;;;;;;8.90;5.95;;;;;;;19.41;66.68;96495.31;5114791;28;20027;-74
2021/07/29 03:33:56;;;;;;;15.20;6.72;;;;;;;19.35;67.17;96491.34;5114754;28;20026;-73
2021/07/29 03:36:22;;;;;;;12.90;6.65;;;;;;;19.40;67.09;96497.16;5114818;28;20105;-70
2021/07/29 03:38:47;;;;;;;8.77;5.85;;;;;;;19.47;67.04;96494.88;5114681;28;20024;-74
2021/07/29 03:41:13;;;;;;;10.00;5.43;;;;;;;19.52;66.95;96491.88;5114691;28;20094;-71
2021/07/29 03:43:38;;;;;;;12.70;6.00;;;;;;;19.55;66.84;96495.16;5114555;28;20385;-73
2021/07/29 03:46:04;;;;;;;8.98;5.90;;;;;;;19.61;66.60;96500.94;5114511;28;20031;-70
2021/07/29 03:48:30;;;;;;;16.13;6.22;;;;;;;19.69;66.20;96499.41;5114387;28;20099;-74
2021/07/29 03:50:55;;;;;;;11.02;5.80;;;;;;;19.82;66.46;96496.69;5114389;28;20034;-75
2021/07/29 03:53:21;;;;;;;10.45;6.63;;;;;;;19.89;65.97;96501.50;5114479;28;20020;-70
2021/07/29 03:55:46;;;;;;;9.02;5.38;;;;;;;20.02;65.79;96504.91;5114397;28;20050;-72
2021/07/29 03:58:12;;;;;;;14.52;5.70;;;;;;;20.26;65.39;96508.47;5113928;28;20031;-72
2021/07/29 04:00:38;;;;;;;6.88;5.65;;;;;;;20.50;64.89;96503.00;5113986;28;20044;-70
2021/07/29 04:03:07;;;;;;;6.95;4.90;;;;;;;20.83;64.22;96506.59;5114345;28;20027;-72
2021/07/29 04:05:33;;;;;;;7.60;5.25;;;;;;;21.17;63.29;96505.72;5114110;28;20016;-72
2021/07/29 04:07:58;;;;;;;9.80;5.43;;;;;;;21.54;62.10;96501.81;5113971;28;20487;-73
2021/07/29 04:10:24;;;;;;;10.95;4.72;;;;;;;21.93;61.60;96503.09;5114014;28;20035;-75
2021/07/29 04:12:49;;;;;;;10.07;4.40;;;;;;;22.29;60.19;96503.56;5114023;28;20020;-74
2021/07/29 04:15:15;;;;;;;7.00;4.22;;;;;;;22.67;59.53;96505.72;5114201;28;20119;-73
2021/07/29 04:17:41;;;;;;;5.80;4.60;;;;;;;23.00;58.66;96500.19;5113861;28;20024;-73
2021/07/29 04:20:08;;;;;;;11.80;4.78;;;;;;;23.35;57.80;96501.47;5113998;28;20098;-71
2021/07/29 04:22:34;;;;;;;9.32;4.95;;;;;;;23.67;56.68;96507.53;5113879;28;20069;-75
2021/07/29 04:24:59;;;;;;;12.73;4.53;;;;;;;23.92;56.37;96502.59;5113829;28;20028;-71
2021/07/29 04:27:25;;;;;;;9.10;4.45;;;;;;;24.27;55.95;96509.16;5113956;28;20024;-71
2021/07/29 04:29:52;;;;;;;13.73;5.03;;;;;;;24.62;54.48;96506.75;5113788;28;20051;-75
2021/07/29 04:32:20;;;;;;;6.60;4.05;;;;;;;24.99;54.09;96505.88;5113762;28;20023;-71
2021/07/29 04:34:46;;;;;;;7.13;4.43;;;;;;;25.28;54.34;96505.84;5113735;28;20389;-71
2021/07/29 04:37:12;;;;;;;11.77;4.75;;;;;;;25.58;52.41;96509.97;5113690;28;20031;-71
2021/07/29 04:39:42;;;;;;;12.25;4.53;;;;;;;25.77;51.51;96516.19;5113579;28;20024;-73
2021/07/29 04:42:09;;;;;;;6.60;4.68;;;;;;;26.04;51.31;96506.34;5113711;28;20028;-75
2021/07/29 04:44:34;;;;;;;8.23;4.80;;;;;;;26.36;51.02;96504.03;5113657;28;20111;-77
2021/07/29 04:47:00;;;;;;;10.88;4.85;;;;;;;26.68;50.56;96505.22;5113733;28;20437;-73
2021/07/29 04:49:26;;;;;;;6.60;4.45;;;;;;;26.94;49.82;96508.81;5113582;28;20122;-75
2021/07/29 04:51:52;;;;;;;8.25;5.25;;;;;;;27.20;50.28;96518.63;5113628;28;20024;-72
2021/07/29 04:54:17;;;;;;;8.50;4.57;;;;;;;27.46;49.00;96525.75;5113546;28;20026;-72
2021/07/29 04:56:43;;;;;;;7.18;4.90;;;;;;;27.73;48.90;96519.25;5113642;28;20538;-72
2021/07/29 04:59:09;;;;;;;7.03;4.30;;;;;;;28.05;48.70;96516.69;5113398;28;20057;-73
2021/07/29 05:01:38;;;;;;;10.77;4.63;;;;;;;28.38;47.58;96526.56;5113155;28;20052;-71
2021/07/29 05:04:04;;;;;;;9.90;4.07;;;;;;;28.61;47.50;96521.31;5113541;28;20016;-74
2021/07/29 05:06:30;;;;;;;9.35;4.55;;;;;;;28.81;47.64;96529.00;5113561;28;20012;-70
2021/07/29 05:08:55;;;;;;;19.75;4.68;;;;;;;29.02;47.09;96535.66;5113419;28;20011;-73
2021/07/29 05:11:21;;;;;;;8.48;4.25;;;;;;;29.09;45.73;96530.38;5115097;28;20031;-73
2021/07/29 05:13:47;;;;;;;10.45;4.60;;;;;;;29.31;44.92;96531.44;5117637;28;20477;-74
2021/07/29 05:16:12;;;;;;;13.40;3.60;;;;;;;29.49;45.56;96535.69;5117452;28;20016;-72
2021/07/29 05:18:38;;;;;;;8.02;4.25;;;;;;;29.70;46.57;96539.63;5117580;28;20028;-71
2021/07/29 05:21:05;;;;;;;5.28;4.18;;;;;;;29.93;45.79;96530.69;5117435;28;20035;-74
2021/07/29 05:23:31;;;;;;;9.45;4.32;;;;;;;30.29;45.77;96532.75;5099096;28;20377;-72
2021/07/29 05:25:57;;;;;;;10.40;4.65;;;;;;;30.56;44.52;96526.91;5117283;28;20020;-72
2021/07/29 05:28:23;;;;;;;10.35;4.80;;;;;;;30.80;44.78;96524.97;5117185;28;20020;-73
2021/07/29 05:30:49;;;;;;;9.93;4.82;;;;;;;31.09;43.72;96534.06;5117143;28;20030;-69
2021/07/29 05:33:15;;;;;;;13.57;5.00;;;;;;;31.33;43.35;96534.75;5117094;28;20031;-70
2021/07/29 05:35:40;;;;;;;14.07;5.40;;;;;;;31.45;40.27;96538.63;5117053;28;20379;-74
2021/07/29 05:38:06;;;;;;;11.63;5.40;;;;;;;31.54;40.17;96533.94;5117037;28;20030;-72
2021/07/29 05:40:31;;;;;;;11.63;5.82;;;;;;;31.89;39.13;96539.47;5117269;28;20051;-72
2021/07/29 05:42:58;;;;;;;13.70;4.85;;;;;;;32.24;39.96;96537.91;5117026;28;20427;-70
2021/07/29 05:45:25;;;;;;;18.00;5.38;;;;;;;32.47;39.91;96534.94;5117038;28;20059;-74
2021/07/29 05:47:50;;;;;;;19.85;4.82;;;;;;;32.77;37.76;96526.59;5116736;28;20380;-71
2021/07/29 05:50:16;;;;;;;13.10;5.38;;;;;;;32.99;39.14;96523.78;5116867;28;20042;-70
2021/07/29 05:52:42;;;;;;;13.30;5.03;;;;;;;33.21;37.95;96528.25;5116782;28;20065;-71
2021/07/29 05:55:08;;;;;;;14.25;4.93;;;;;;;33.34;37.41;96522.88;5116828;28;20065;-71
2021/07/29 05:57:34;;;;;;;13.52;4.90;;;;;;;33.49;37.17;96527.28;5116741;28;20019;-72
2021/07/29 06:00:00;;;;;;;14.05;5.07;;;;;;;33.71;38.48;96524.44;5116293;28;20527;-74
2021/07/29 06:02:25;;;;;;;6.25;4.47;;;;;;;33.97;37.29;96518.19;5116529;28;20027;-72
2021/07/29 06:04:51;;;;;;;10.80;5.32;;;;;;;34.23;37.18;96507.56;5116566;28;20031;-71
2021/07/29 06:07:18;;;;;;;11.70;4.65;;;;;;;34.16;35.39;96513.03;5116623;28;20517;-76
2021/07/29 06:09:43;;;;;;;8.95;4.45;;;;;;;34.29;36.20;96504.03;5116424;28;20114;-70
2021/07/29 06:12:10;;;;;;;7.93;4.00;;;;;;;34.46;33.93;96507.09;5116664;28;20020;-69
2021/07/29 06:14:36;;;;;;;8.73;4.32;;;;;;;34.70;34.40;96495.81;5116618;28;20065;-70
2021/07/29 06:17:02;;;;;;;5.80;4.30;;;;;;;34.89;33.27;96502.22;5116521;28;20051;-71
2021/07/29 06:19:34;;;;;;;7.60;4.20;;;;;;;35.10;32.48;96517.38;5116367;28;20024;-69
2021/07/29 06:22:00;;;;;;;12.25;5.55;;;;;;;35.31;33.35;96515.41;5116067;28;20020;-71
2021/07/29 06:24:26;;;;;;;10.30;4.25;;;;;;;35.49;35.24;96517.41;5116237;28;20024;-74
2021/07/29 06:26:53;;;;;;;9.45;4.20;;;;;;;35.57;30.39;96512.75;5116196;28;20024;-72
2021/07/29 06:29:19;;;;;;;9.40;3.53;;;;;;;35.38;27.26;96510.78;5116026;28;20491;-72
2021/07/29 06:31:44;;;;;;;14.32;4.13;;;;;;;35.41;27.45;96512.22;5116098;28;20036;-71
2021/07/29 06:34:10;;;;;;;6.35;3.42;;;;;;;35.41;28.37;96504.06;5116030;28;20020;-70
2021/07/29 06:36:36;;;;;;;8.40;4.15;;;;;;;35.46;26.61;96500.69;5115920;28;20077;-73
2021/07/29 06:39:03;;;;;;;10.43;4.10;;;;;;;35.13;26.74;96494.38;5115857;28;20016;-71
2021/07/29 06:41:29;;;;;;;6.65;3.70;;;;;;;35.15;27.31;96487.66;5115847;28;20023;-72
2021/07/29 06:43:54;;;;;;;9.15;4.00;;;;;;;35.36;27.83;96495.75;5115770;28;20062;-72
2021/07/29 06:46:20;;;;;;;7.90;3.25;;;;;;;35.59;29.25;96497.88;5115642;28;20055;-72
2021/07/29 06:48:48;;;;;;;5.82;3.85;;;;;;;35.56;26.64;96492.03;5115597;28;20106;-72
2021/07/29 06:51:13;;;;;;;8.70;3.83;;;;;;;35.25;27.20;96492.66;5115767;28;20031;-72
2021/07/29 06:53:39;;;;;;;5.80;3.80;;;;;;;35.35;28.70;96494.06;5115693;28;20104;-72
2021/07/29 06:56:08;;;;;;;5.55;3.50;;;;;;;35.41;28.69;96491.31;5115877;28;20102;-73
2021/07/29 06:58:34;;;;;;;6.55;3.65;;;;;;;35.18;26.33;96485.59;5115405;28;20019;-73
2021/07/29 07:01:02;;;;;;;6.03;3.50;;;;;;;34.82;26.02;96488.66;5115112;28;20036;-71
2021/07/29 07:03:28;;;;;;;11.15;3.80;;;;;;;34.96;28.33;96494.88;5115342;28;20047;-71
2021/07/29 07:05:59;;;;;;;6.72;3.67;;;;;;;35.25;28.74;96484.53;5115456;28;20051;-71
2021/07/29 07:08:24;;;;;;;6.30;4.05;;;;;;;35.57;27.10;96497.25;5115486;28;20058;-73
2021/07/29 07:10:50;;;;;;;12.80;4.45;;;;;;;35.61;25.46;96493.06;5115224;28;20515;-71
2021/07/29 07:13:15;;;;;;;8.10;3.70;;;;;;;35.46;26.72;96487.09;5115290;28;20080;-73
2021/07/29 07:15:44;;;;;;;13.00;5.28;;;;;;;35.83;26.07;96495.44;5115361;28;20062;-72
2021/07/29 07:18:10;;;;;;;12.40;3.97;;;;;;;36.13;26.40;96488.47;5115322;28;20557;-69
2021/07/29 07:20:36;;;;;;;12.25;4.13;;;;;;;36.46;25.49;96487.34;5115233;28;20023;-73
2021/07/29 07:23:01;;;;;;;4.35;3.47;;;;;;;36.56;25.42;96488.72;5115163;28;20530;-70
2021/07/29 07:25:27;;;;;;;9.52;4.30;;;;;;;36.63;25.75;96486.75;5114844;28;20427;-69
2021/07/29 07:27:53;;;;;;;7.72;3.95;;;;;;;36.80;24.35;96481.53;5114902;28;20503;-69
2021/07/29 07:30:18;;;;;;;8.30;3.80;;;;;;;37.10;25.09;96480.72;5114934;28;20027;-74
2021/07/29 07:32:44;;;;;;;8.30;3.75;;;;;;;37.40;26.04;96482.66;5114683;28;20031;-73
2021/07/29 07:35:10;;;;;;;10.43;3.75;;;;;;;37.65;24.82;96486.28;5114042;28;20032;-73
2021/07/29 07:37:36;;;;;;;12.00;4.10;;;;;;;37.67;25.82;96489.59;5114584;28;20060;-71
2021/07/29 07:40:02;;;;;;;9.75;4.22;;;;;;;37.66;26.68;96480.59;5114581;28;20175;-69
2021/07/29 07:42:28;;;;;;;10.02;3.95;;;;;;;37.79;24.34;96487.75;5114699;28;20034;-74
2021/07/29 07:44:56;;;;;;;11.75;4.35;;;;;;;37.81;23.65;96479.34;5114612;28;20477;-71
2021/07/29 07:47:22;;;;;;;8.90;3.88;;;;;;;37.97;26.25;96477.81;5114536;28;20196;-73
2021/07/29 07:49:48;;;;;;;9.70;4.18;;;;;;;38.11;24.20;96475.69;5114482;28;20024;-69
2021/07/29 07:52:13;;;;;;;12.57;3.95;;;;;;;38.17;23.35;96476.66;5114583;28;20516;-70
2021/07/29 07:54:39;;;;;;;6.20;4.53;;;;;;;38.08;23.87;96476.16;5114658;28;21223;-70
2021/07/29 07:57:06;;;;;;;10.27;4.55;;;;;;;38.33;23.72;96475.09;5114523;28;20032;-69
2021/07/29 07:59:36;;;;;;;8.70;4.43;;;;;;;38.43;23.69;96479.94;5095913;28;20540;-70
2021/07/29 08:02:02;;;;;;;9.82;3.92;;;;;;;38.36;22.17;96476.50;5114232;28;20031;-71
2021/07/29 08:04:28;;;;;;;10.95;4.47;;;;;;;38.11;23.19;96478.41;5114473;28;20023;-73
2021/07/29 08:06:53;;;;;;;8.50;4.07;;;;;;;37.99;23.73;96477.56;5114199;28;20031;-71
2021/07/29 08:09:19;;;;;;;8.68;3.83;;;;;;;37.88;24.78;96471.03;5114225;28;20015;-71
2021/07/29 08:11:45;;;;;;;8.18;4.57;;;;;;;37.93;24.32;96466.50;5114089;28;20023;-71
2021/07/29 08:14:10;;;;;;;11.30;4.40;;;;;;;38.17;24.33;96465.75;5114053;28;20377;-74
2021/07/29 08:16:37;;;;;;;10.55;4.30;;;;;;;38.27;23.62;96465.13;5113917;28;20020;-73
2021/07/29 08:19:03;;;;;;;8.65;3.92;;;;;;;37.96;25.59;96472.56;5113949;28;20496;-72
2021/07/29 08:21:28;;;;;;;7.97;4.20;;;;;;;37.62;23.17;96462.19;5113939;28;20020;-74
2021/07/29 08:23:54;;;;;;;13.52;4.80;;;;;;;37.34;24.66;96464.50;5113931;28;20020;-72
2021/07/29 08:26:20;;;;;;;8.73;4.97;;;;;;;36.62;24.84;96458.66;5113842;28;20019;-72
2021/07/29 08:28:45;;;;;;;9.20;4.75;;;;;;;36.21;25.84;96454.75;5113753;28;20077;-72
2021/07/29 08:31:13;;;;;;;10.60;4.43;;;;;;;36.20;25.51;96453.91;5113600;28;20024;-72
2021/07/29 08:33:40;;;;;;;14.57;5.22;;;;;;;36.21;25.53;96446.56;5113861;28;20024;-71
2021/07/29 08:36:11;;;;;;;15.38;4.78;;;;;;;36.25;28.68;96451.34;5113774;28;20027;-71
2021/07/29 08:38:37;;;;;;;12.27;4.93;;;;;;;36.57;26.76;96447.66;5113787;28;20032;-72
2021/07/29 08:41:03;;;;;;;11.02;4.75;;;;;;;36.95;25.87;96453.91;5113528;28;20023;-72
2021/07/29 08:43:30;;;;;;;9.65;4.50;;;;;;;37.34;24.30;96447.28;5113729;28;20053;-72
2021/07/29 08:45:55;;;;;;;9.35;4.22;;;;;;;37.50;24.38;96454.00;5113470;28;20094;-74
2021/07/29 08:48:28;;;;;;;14.57;4.30;;;;;;;37.41;24.33;96440.69;5113686;28;20436;-73
2021/07/29 08:50:55;;;;;;;8.45;4.68;;;;;;;37.55;25.37;96435.88;5113574;28;20032;-73
2021/07/29 08:53:22;;;;;;;10.43;4.15;;;;;;;37.81;25.02;96443.88;5113499;28;20024;-74
2021/07/29 08:55:52;;;;;;;10.05;4.47;;;;;;;38.00;24.79;96435.56;5113597;28;20473;-70
2021/07/29 08:58:19;;;;;;;14.45;4.75;;;;;;;38.01;23.66;96423.59;5113557;28;20016;-71
2021/07/29 09:01:12;;;;;;;9.68;4.20;;;;;;;37.80;24.23;96432.13;5113267;28;20044;-72
2021/07/29 09:03:39;;;;;;;11.57;4.65;;;;;;;38.02;23.86;96427.97;5113503;28;20034;-71
2021/07/29 09:06:15;;;;;;;9.60;4.25;;;;;;;38.32;22.64;96426.19;5113507;28;20427;-70
2021/07/29 09:08:52;;;;;;;10.10;4.70;;;;;;;37.97;21.85;96417.78;5113480;28;20023;-74
2021/07/29 09:11:37;;;;;;;9.88;5.18;;;;;;;37.97;24.35;96414.19;5113577;28;20419;-72
2021/07/29 09:14:03;;;;;;;13.43;5.07;;;;;;;37.89;25.98;96418.94;5113350;28;20035;-72
2021/07/29 09:16:29;;;;;;;9.07;4.13;;;;;;;37.99;27.05;96414.81;5113333;28;20026;-72
2021/07/29 09:18:54;;;;;;;10.73;4.80;;;;;;;37.92;24.33;96412.22;5113213;28;20019;-71
2021/07/29 09:21:20;;;;;;;12.20;4.60;;;;;;;37.93;24.19;96419.31;5113281;28;20031;-71
2021/07/29 09:24:06;;;;;;;10.13;4.88;;;;;;;37.66;23.27;96423.31;5113288;28;20042;-74
2021/07/29 09:26:58;;;;;;;9.80;4.35;;;;;;;37.37;23.22;96409.50;5113244;28;20072;-71
2021/07/29 09:29:26;;;;;;;8.70;4.93;;;;;;;37.04;24.79;96410.81;5108779;28;20043;-71
2021/07/29 09:32:12;;;;;;;8.55;4.88;;;;;;;37.13;25.19;96414.03;5113268;28;20370;-71
2021/07/29 09:34:45;;;;;;;7.47;4.32;;;;;;;37.23;22.94;96410.78;5113017;28;20043;-69
2021/07/29 09:37:11;;;;;;;9.77;5.07;;;;;;;37.16;24.83;96405.41;5113409;28;20024;-70
2021/07/29 09:39:37;;;;;;;11.95;4.82;;;;;;;37.26;24.02;96408.41;5112948;28;20380;-71
2021/07/29 09:42:23;;;;;;;11.50;4.63;;;;;;;37.41;25.79;96401.72;5113017;28;20027;-70
2021/07/29 09:44:51;;;;;;;8.90;5.22;;;;;;;37.40;25.70;96400.03;5112997;28;20031;-73
2021/07/29 09:47:21;;;;;;;11.50;4.68;;;;;;;37.23;23.87;96403.41;5113267;28;20043;-71
2021/07/29 09:49:50;;;;;;;15.07;4.88;;;;;;;37.28;25.16;96400.84;5112986;28;20032;-71
2021/07/29 09:52:17;;;;;;;9.93;4.53;;;;;;;37.38;25.43;96407.63;5112986;28;20482;-73
2021/07/29 09:54:45;;;;;;;9.48;4.68;;;;;;;37.63;25.59;96406.59;5113045;28;20035;-72
2021/07/29 09:57:11;;;;;;;11.68;5.13;;;;;;;37.64;24.16;96400.91;5114440;28;20171;-74
2021/07/29 09:59:38;;;;;;;11.77;4.40;;;;;;;37.69;24.79;96402.09;5116473;28;20066;-72
2021/07/29 10:02:05;;;;;;;7.95;4.60;;;;;;;37.84;24.25;96394.31;5116847;28;20482;-71
2021/07/29 10:04:37;;;;;;;8.98;5.18;;;;;;;38.01;24.89;96394.38;5116575;28;20030;-73
2021/07/29 10:07:07;;;;;;;16.23;4.72;;;;;;;38.14;24.03;96395.22;5116586;28;20482;-73
2021/07/29 10:09:38;;;;;;;15.38;5.35;;;;;;;37.95;23.57;96389.88;5116376;28;20028;-74
2021/07/29 10:12:06;;;;;;;12.68;4.07;;;;;;;38.04;25.28;96387.66;5116616;28;20469;-72
2021/07/29 10:14:51;;;;;;;8.10;4.72;;;;;;;38.32;23.68;96391.53;5116446;28;20030;-72
2021/07/29 10:17:18;;;;;;;13.05;4.88;;;;;;;38.40;23.07;96387.63;5116359;28;20480;-74
2021/07/29 10:20:23;;;;;;;14.88;4.82;;;;;;;38.45;24.25;96387.69;5116330;28;20016;-69
2021/07/29 10:23:15;;;;;;;17.35;5.35;;;;;;;37.96;23.31;96379.81;5013822;28;20037;-71
2021/07/29 10:26:06;;;;;;;13.43;5.15;;;;;;;37.75;22.65;96379.34;5013833;28;20034;-71
2021/07/29 10:28:38;;;;;;;14.93;4.80;;;;;;;37.74;24.40;96372.25;5091686;28;20429;-72
2021/07/29 10:31:06;;;;;;;10.15;4.70;;;;;;;38.01;26.94;96369.03;5097807;28;20370;-70
2021/07/29 10:33:32;;;;;;;13.65;5.20;;;;;;;38.00;24.95;96368.19;5116046;28;20039;-75
2021/07/29 10:35:59;;;;;;;12.88;4.63;;;;;;;38.17;25.47;96367.47;5115926;28;20023;-73
2021/07/29 10:38:48;;;;;;;18.55;5.30;;;;;;;38.29;24.61;96354.63;5115823;28;20561;-74
2021/07/29 10:41:15;;;;;;;14.13;5.65;;;;;;;38.23;23.67;96365.69;5115841;28;20035;-72
2021/07/29 10:43:41;;;;;;;9.85;4.90;;;;;;;38.30;23.98;96367.22;5115840;28;20115;-73
2021/07/29 10:46:07;;;;;;;11.75;5.50;;;;;;;38.32;24.18;96357.94;5115730;28;20019;-71
2021/07/29 10:48:40;;;;;;;11.13;5.07;;;;;;;38.39;25.31;96355.91;5115749;28;20044;-74
2021/07/29 10:51:22;;;;;;;20.88;5.68;;;;;;;38.35;24.44;96352.84;5115833;28;20039;-70
2021/07/29 10:53:55;;;;;;;14.65;5.25;;;;;;;38.42;24.71;96359.00;5115715;28;20046;-77
2021/07/29 10:56:22;;;;;;;11.48;5.07;;;;;;;38.49;23.51;96358.03;5115506;28;20024;-73
2021/07/29 10:58:49;;;;;;;14.65;5.07;;;;;;;38.63;24.15;96353.13;5115554;28;20122;-74
2021/07/29 11:01:16;;;;;;;14.55;5.05;;;;;;;38.73;22.99;96353.31;5115410;28;20044;-73
2021/07/29 11:03:51;;;;;;;12.30;5.47;;;;;;;38.60;23.92;96348.09;5115438;28;20045;-71
2021/07/29 11:09:21;;;;;;;14.48;5.18;;;;;;;38.46;24.09;96350.31;5115296;28;20533;-71
2021/07/29 11:11:48;;;;;;;13.43;5.78;;;;;;;38.61;22.76;96350.59;5115328;28;20110;-69
2021/07/29 11:14:25;;;;;;;18.67;5.40;;;;;;;38.71;23.31;96338.25;5115276;28;20061;-71
2021/07/29 11:16:52;;;;;;;16.48;4.80;;;;;;;38.80;24.22;96350.44;5115240;28;20108;-74
2021/07/29 11:19:17;;;;;;;13.05;5.47;;;;;;;38.64;23.17;96341.94;5115020;28;20393;-73
2021/07/29 11:21:43;;;;;;;15.20;5.15;;;;;;;38.54;25.10;96345.28;5115142;28;20024;-72
2021/07/29 11:24:25;;;;;;;29.90;5.03;;;;;;;38.46;24.77;96339.41;5115145;28;20078;-75
2021/07/29 11:26:51;;;;;;;15.73;5.18;;;;;;;38.22;24.28;96342.19;5115039;28;20015;-74
2021/07/29 11:29:17;;;;;;;15.02;5.53;;;;;;;38.12;23.28;96329.13;5114819;28;20030;-76
2021/07/29 11:31:43;;;;;;;20.42;5.03;;;;;;;38.04;24.27;96328.44;5114765;28;20024;-72
2021/07/29 11:34:09;;;;;;;10.65;4.95;;;;;;;38.12;24.73;96327.22;5114851;28;20024;-73